sensor_id;sensor_type;location;lat;lon;timestamp;P1;durP1;ratioP1;P2;durP2;ratioP2
27265;SDS011;14766;51.380;13.762;2023-05-07T00:02:01;7.45;;;5.97;;
27265;SDS011;14766;51.380;13.762;2023-05-07T00:04:30;7.43;;;6.13;;
27265;SDS011;14766;51.380;13.762;2023-05-07T00:07:03;7.85;;;6.25;;
27265;SDS011;14766;51.380;13.762;2023-05-07T00:09:30;8.77;;;6.18;;
27265;SDS011;14766;51.380;13.762;2023-05-07T00:11:57;8.10;;;6.22;;
27265;SDS011;14766;51.380;13.762;2023-05-07T00:14:24;6.82;;;5.47;;
27265;SDS011;14766;51.380;13.762;2023-05-07T00:16:51;9.07;;;6.63;;
27265;SDS011;14766;51.380;13.762;2023-05-07T00:19:19;9.10;;;6.68;;
27265;SDS011;14766;51.380;13.762;2023-05-07T00:21:47;8.68;;;6.80;;
27265;SDS011;14766;51.380;13.762;2023-05-07T00:24:14;7.88;;;6.32;;
27265;SDS011;14766;51.380;13.762;2023-05-07T00:26:42;8.75;;;6.70;;
27265;SDS011;14766;51.380;13.762;2023-05-07T00:29:09;8.75;;;6.70;;
27265;SDS011;14766;51.380;13.762;2023-05-07T00:31:36;9.10;;;6.90;;
27265;SDS011;14766;51.380;13.762;2023-05-07T00:34:03;8.95;;;6.50;;
27265;SDS011;14766;51.380;13.762;2023-05-07T00:36:30;8.55;;;6.57;;
27265;SDS011;14766;51.380;13.762;2023-05-07T00:38:59;9.27;;;6.63;;
27265;SDS011;14766;51.380;13.762;2023-05-07T00:41:26;9.15;;;6.72;;
27265;SDS011;14766;51.380;13.762;2023-05-07T00:43:54;9.98;;;6.45;;
27265;SDS011;14766;51.380;13.762;2023-05-07T00:46:21;8.57;;;6.65;;
27265;SDS011;14766;51.380;13.762;2023-05-07T00:48:52;8.13;;;6.45;;
27265;SDS011;14766;51.380;13.762;2023-05-07T00:51:20;8.82;;;7.07;;
27265;SDS011;14766;51.380;13.762;2023-05-07T00:53:47;9.50;;;6.55;;
27265;SDS011;14766;51.380;13.762;2023-05-07T00:56:14;9.07;;;6.20;;
27265;SDS011;14766;51.380;13.762;2023-05-07T00:58:42;8.98;;;6.60;;
27265;SDS011;14766;51.380;13.762;2023-05-07T01:01:09;7.75;;;6.65;;
27265;SDS011;14766;51.380;13.762;2023-05-07T01:03:36;9.95;;;6.68;;
27265;SDS011;14766;51.380;13.762;2023-05-07T01:06:04;7.57;;;6.07;;
27265;SDS011;14766;51.380;13.762;2023-05-07T01:08:32;8.00;;;6.07;;
27265;SDS011;14766;51.380;13.762;2023-05-07T01:11:01;7.80;;;6.15;;
27265;SDS011;14766;51.380;13.762;2023-05-07T01:13:28;7.95;;;6.30;;
27265;SDS011;14766;51.380;13.762;2023-05-07T01:15:56;9.55;;;6.40;;
27265;SDS011;14766;51.380;13.762;2023-05-07T01:18:23;8.70;;;6.07;;
27265;SDS011;14766;51.380;13.762;2023-05-07T01:20:52;9.38;;;6.75;;
27265;SDS011;14766;51.380;13.762;2023-05-07T01:23:20;9.45;;;6.72;;
27265;SDS011;14766;51.380;13.762;2023-05-07T01:25:54;7.78;;;6.15;;
27265;SDS011;14766;51.380;13.762;2023-05-07T01:28:24;9.45;;;6.88;;
27265;SDS011;14766;51.380;13.762;2023-05-07T01:30:56;7.32;;;6.18;;
27265;SDS011;14766;51.380;13.762;2023-05-07T01:33:29;8.15;;;5.75;;
27265;SDS011;14766;51.380;13.762;2023-05-07T01:35:59;7.40;;;5.50;;
27265;SDS011;14766;51.380;13.762;2023-05-07T01:38:30;7.55;;;5.53;;
27265;SDS011;14766;51.380;13.762;2023-05-07T01:40:57;6.97;;;4.80;;
27265;SDS011;14766;51.380;13.762;2023-05-07T01:43:25;8.20;;;5.40;;
27265;SDS011;14766;51.380;13.762;2023-05-07T01:45:52;6.32;;;4.80;;
27265;SDS011;14766;51.380;13.762;2023-05-07T01:48:20;8.80;;;5.78;;
27265;SDS011;14766;51.380;13.762;2023-05-07T01:50:47;6.22;;;4.70;;
27265;SDS011;14766;51.380;13.762;2023-05-07T01:53:15;8.70;;;5.57;;
27265;SDS011;14766;51.380;13.762;2023-05-07T01:55:42;6.53;;;4.45;;
27265;SDS011;14766;51.380;13.762;2023-05-07T01:58:09;7.13;;;4.80;;
27265;SDS011;14766;51.380;13.762;2023-05-07T02:00:37;8.20;;;5.10;;
27265;SDS011;14766;51.380;13.762;2023-05-07T02:03:06;6.65;;;4.97;;
27265;SDS011;14766;51.380;13.762;2023-05-07T02:05:40;7.95;;;5.03;;
27265;SDS011;14766;51.380;13.762;2023-05-07T02:08:18;7.35;;;5.15;;
27265;SDS011;14766;51.380;13.762;2023-05-07T02:10:45;7.40;;;5.47;;
27265;SDS011;14766;51.380;13.762;2023-05-07T02:13:12;8.35;;;5.75;;
27265;SDS011;14766;51.380;13.762;2023-05-07T02:15:39;7.57;;;5.85;;
27265;SDS011;14766;51.380;13.762;2023-05-07T02:18:07;6.85;;;5.22;;
27265;SDS011;14766;51.380;13.762;2023-05-07T02:20:36;8.73;;;6.13;;
27265;SDS011;14766;51.380;13.762;2023-05-07T02:23:03;8.02;;;5.65;;
27265;SDS011;14766;51.380;13.762;2023-05-07T02:25:30;7.20;;;5.40;;
27265;SDS011;14766;51.380;13.762;2023-05-07T02:27:58;8.98;;;5.80;;
27265;SDS011;14766;51.380;13.762;2023-05-07T02:30:57;7.78;;;5.28;;
27265;SDS011;14766;51.380;13.762;2023-05-07T02:33:27;6.38;;;5.28;;
27265;SDS011;14766;51.380;13.762;2023-05-07T02:35:55;9.82;;;6.65;;
27265;SDS011;14766;51.380;13.762;2023-05-07T02:38:23;7.82;;;6.10;;
27265;SDS011;14766;51.380;13.762;2023-05-07T02:40:50;7.78;;;5.68;;
27265;SDS011;14766;51.380;13.762;2023-05-07T02:43:41;6.88;;;5.72;;
27265;SDS011;14766;51.380;13.762;2023-05-07T02:46:10;6.70;;;5.30;;
27265;SDS011;14766;51.380;13.762;2023-05-07T02:48:43;7.00;;;5.68;;
27265;SDS011;14766;51.380;13.762;2023-05-07T02:51:11;7.63;;;5.95;;
27265;SDS011;14766;51.380;13.762;2023-05-07T02:53:40;8.95;;;5.75;;
27265;SDS011;14766;51.380;13.762;2023-05-07T02:56:07;8.85;;;6.03;;
27265;SDS011;14766;51.380;13.762;2023-05-07T02:58:34;8.60;;;6.43;;
27265;SDS011;14766;51.380;13.762;2023-05-07T03:01:02;9.45;;;6.28;;
27265;SDS011;14766;51.380;13.762;2023-05-07T03:03:35;8.63;;;5.90;;
27265;SDS011;14766;51.380;13.762;2023-05-07T03:06:03;7.13;;;5.72;;
27265;SDS011;14766;51.380;13.762;2023-05-07T03:08:32;8.13;;;6.65;;
27265;SDS011;14766;51.380;13.762;2023-05-07T03:11:00;7.15;;;6.10;;
27265;SDS011;14766;51.380;13.762;2023-05-07T03:13:27;8.10;;;5.28;;
27265;SDS011;14766;51.380;13.762;2023-05-07T03:15:55;9.02;;;5.85;;
27265;SDS011;14766;51.380;13.762;2023-05-07T03:18:22;6.53;;;5.28;;
27265;SDS011;14766;51.380;13.762;2023-05-07T03:20:51;7.28;;;5.40;;
27265;SDS011;14766;51.380;13.762;2023-05-07T03:23:18;8.40;;;6.03;;
27265;SDS011;14766;51.380;13.762;2023-05-07T03:25:47;7.82;;;5.95;;
27265;SDS011;14766;51.380;13.762;2023-05-07T03:28:14;7.55;;;5.68;;
27265;SDS011;14766;51.380;13.762;2023-05-07T03:33:17;8.43;;;5.65;;
27265;SDS011;14766;51.380;13.762;2023-05-07T03:35:46;7.05;;;5.45;;
27265;SDS011;14766;51.380;13.762;2023-05-07T03:38:18;8.32;;;5.68;;
27265;SDS011;14766;51.380;13.762;2023-05-07T03:40:46;5.82;;;5.22;;
27265;SDS011;14766;51.380;13.762;2023-05-07T03:43:14;8.98;;;6.78;;
27265;SDS011;14766;51.380;13.762;2023-05-07T03:45:45;9.13;;;6.60;;
27265;SDS011;14766;51.380;13.762;2023-05-07T03:48:17;8.40;;;6.53;;
27265;SDS011;14766;51.380;13.762;2023-05-07T03:50:47;8.07;;;5.85;;
27265;SDS011;14766;51.380;13.762;2023-05-07T03:53:17;7.82;;;6.07;;
27265;SDS011;14766;51.380;13.762;2023-05-07T03:55:44;8.18;;;6.20;;
27265;SDS011;14766;51.380;13.762;2023-05-07T03:58:11;8.02;;;6.47;;
27265;SDS011;14766;51.380;13.762;2023-05-07T04:00:38;8.68;;;6.53;;
27265;SDS011;14766;51.380;13.762;2023-05-07T04:03:27;7.15;;;6.18;;
27265;SDS011;14766;51.380;13.762;2023-05-07T04:05:57;7.85;;;5.72;;
27265;SDS011;14766;51.380;13.762;2023-05-07T04:08:24;8.05;;;6.20;;
27265;SDS011;14766;51.380;13.762;2023-05-07T04:10:56;8.85;;;6.15;;
27265;SDS011;14766;51.380;13.762;2023-05-07T04:13:29;8.32;;;6.55;;
27265;SDS011;14766;51.380;13.762;2023-05-07T04:15:58;7.72;;;6.18;;
27265;SDS011;14766;51.380;13.762;2023-05-07T04:18:28;8.07;;;5.68;;
27265;SDS011;14766;51.380;13.762;2023-05-07T04:20:55;8.60;;;6.72;;
27265;SDS011;14766;51.380;13.762;2023-05-07T04:23:22;8.27;;;5.88;;
27265;SDS011;14766;51.380;13.762;2023-05-07T04:25:49;9.00;;;5.65;;
27265;SDS011;14766;51.380;13.762;2023-05-07T04:28:24;8.75;;;6.68;;
27265;SDS011;14766;51.380;13.762;2023-05-07T04:30:51;8.85;;;6.35;;
27265;SDS011;14766;51.380;13.762;2023-05-07T04:33:19;7.55;;;5.43;;
27265;SDS011;14766;51.380;13.762;2023-05-07T04:35:48;7.65;;;5.70;;
27265;SDS011;14766;51.380;13.762;2023-05-07T04:38:15;8.80;;;5.57;;
27265;SDS011;14766;51.380;13.762;2023-05-07T04:40:44;5.68;;;4.93;;
27265;SDS011;14766;51.380;13.762;2023-05-07T04:43:14;6.60;;;4.88;;
27265;SDS011;14766;51.380;13.762;2023-05-07T04:45:47;6.10;;;5.43;;
27265;SDS011;14766;51.380;13.762;2023-05-07T04:48:16;6.78;;;5.43;;
27265;SDS011;14766;51.380;13.762;2023-05-07T04:50:49;8.27;;;5.82;;
27265;SDS011;14766;51.380;13.762;2023-05-07T04:53:18;5.80;;;5.10;;
27265;SDS011;14766;51.380;13.762;2023-05-07T04:55:46;5.65;;;4.70;;
27265;SDS011;14766;51.380;13.762;2023-05-07T04:58:14;6.90;;;5.50;;
27265;SDS011;14766;51.380;13.762;2023-05-07T05:00:44;6.82;;;5.75;;
27265;SDS011;14766;51.380;13.762;2023-05-07T05:03:11;6.35;;;5.22;;
27265;SDS011;14766;51.380;13.762;2023-05-07T05:05:39;6.15;;;5.07;;
27265;SDS011;14766;51.380;13.762;2023-05-07T05:08:06;5.53;;;4.57;;
27265;SDS011;14766;51.380;13.762;2023-05-07T05:10:36;5.97;;;5.03;;
27265;SDS011;14766;51.380;13.762;2023-05-07T05:13:05;5.38;;;4.50;;
27265;SDS011;14766;51.380;13.762;2023-05-07T05:15:32;6.43;;;4.97;;
27265;SDS011;14766;51.380;13.762;2023-05-07T05:18:01;5.20;;;4.70;;
27265;SDS011;14766;51.380;13.762;2023-05-07T05:20:29;5.10;;;4.43;;
27265;SDS011;14766;51.380;13.762;2023-05-07T05:22:56;5.22;;;4.55;;
27265;SDS011;14766;51.380;13.762;2023-05-07T05:25:23;6.50;;;4.53;;
27265;SDS011;14766;51.380;13.762;2023-05-07T05:27:50;6.75;;;4.68;;
27265;SDS011;14766;51.380;13.762;2023-05-07T05:30:18;5.57;;;4.70;;
27265;SDS011;14766;51.380;13.762;2023-05-07T05:32:47;5.45;;;4.93;;
27265;SDS011;14766;51.380;13.762;2023-05-07T05:35:14;6.20;;;4.70;;
27265;SDS011;14766;51.380;13.762;2023-05-07T05:37:42;5.80;;;4.80;;
27265;SDS011;14766;51.380;13.762;2023-05-07T05:40:09;5.88;;;4.82;;
27265;SDS011;14766;51.380;13.762;2023-05-07T05:42:37;7.43;;;5.10;;
27265;SDS011;14766;51.380;13.762;2023-05-07T05:45:04;4.90;;;4.40;;
27265;SDS011;14766;51.380;13.762;2023-05-07T05:47:33;5.88;;;4.60;;
27265;SDS011;14766;51.380;13.762;2023-05-07T05:50:01;6.30;;;5.00;;
27265;SDS011;14766;51.380;13.762;2023-05-07T05:52:28;5.32;;;4.82;;
27265;SDS011;14766;51.380;13.762;2023-05-07T05:54:56;5.68;;;4.80;;
27265;SDS011;14766;51.380;13.762;2023-05-07T05:57:24;6.45;;;5.15;;
27265;SDS011;14766;51.380;13.762;2023-05-07T05:59:54;6.88;;;4.82;;
27265;SDS011;14766;51.380;13.762;2023-05-07T06:02:23;5.95;;;5.28;;
27265;SDS011;14766;51.380;13.762;2023-05-07T06:04:50;7.45;;;5.07;;
27265;SDS011;14766;51.380;13.762;2023-05-07T06:07:20;6.43;;;5.10;;
27265;SDS011;14766;51.380;13.762;2023-05-07T06:09:48;6.60;;;4.75;;
27265;SDS011;14766;51.380;13.762;2023-05-07T06:12:15;6.05;;;5.00;;
27265;SDS011;14766;51.380;13.762;2023-05-07T06:14:43;7.53;;;5.03;;
27265;SDS011;14766;51.380;13.762;2023-05-07T06:17:11;6.32;;;5.00;;
27265;SDS011;14766;51.380;13.762;2023-05-07T06:19:38;5.65;;;4.82;;
27265;SDS011;14766;51.380;13.762;2023-05-07T06:22:09;5.03;;;4.53;;
27265;SDS011;14766;51.380;13.762;2023-05-07T06:24:37;5.32;;;4.55;;
27265;SDS011;14766;51.380;13.762;2023-05-07T06:27:05;5.43;;;4.22;;
27265;SDS011;14766;51.380;13.762;2023-05-07T06:29:32;4.53;;;3.90;;
27265;SDS011;14766;51.380;13.762;2023-05-07T06:32:07;6.60;;;4.63;;
27265;SDS011;14766;51.380;13.762;2023-05-07T06:34:41;5.88;;;4.60;;
27265;SDS011;14766;51.380;13.762;2023-05-07T06:37:09;5.13;;;4.25;;
27265;SDS011;14766;51.380;13.762;2023-05-07T06:39:51;5.50;;;3.97;;
27265;SDS011;14766;51.380;13.762;2023-05-07T06:42:19;5.15;;;4.55;;
27265;SDS011;14766;51.380;13.762;2023-05-07T06:44:47;4.53;;;3.92;;
27265;SDS011;14766;51.380;13.762;2023-05-07T06:47:16;5.25;;;3.78;;
27265;SDS011;14766;51.380;13.762;2023-05-07T06:49:47;4.30;;;3.90;;
27265;SDS011;14766;51.380;13.762;2023-05-07T06:52:17;4.28;;;3.88;;
27265;SDS011;14766;51.380;13.762;2023-05-07T06:54:46;5.63;;;4.65;;
27265;SDS011;14766;51.380;13.762;2023-05-07T06:57:15;5.93;;;4.85;;
27265;SDS011;14766;51.380;13.762;2023-05-07T06:59:44;6.65;;;4.88;;
27265;SDS011;14766;51.380;13.762;2023-05-07T07:02:13;6.25;;;4.97;;
27265;SDS011;14766;51.380;13.762;2023-05-07T07:04:45;6.38;;;4.85;;
27265;SDS011;14766;51.380;13.762;2023-05-07T07:07:13;4.85;;;4.35;;
27265;SDS011;14766;51.380;13.762;2023-05-07T07:09:43;5.45;;;4.57;;
27265;SDS011;14766;51.380;13.762;2023-05-07T07:12:12;4.57;;;4.13;;
27265;SDS011;14766;51.380;13.762;2023-05-07T07:14:40;5.97;;;5.20;;
27265;SDS011;14766;51.380;13.762;2023-05-07T07:17:07;6.82;;;5.50;;
27265;SDS011;14766;51.380;13.762;2023-05-07T07:19:36;6.82;;;5.43;;
27265;SDS011;14766;51.380;13.762;2023-05-07T07:22:04;6.97;;;5.60;;
27265;SDS011;14766;51.380;13.762;2023-05-07T07:24:31;6.80;;;5.53;;
27265;SDS011;14766;51.380;13.762;2023-05-07T07:27:02;6.20;;;5.60;;
27265;SDS011;14766;51.380;13.762;2023-05-07T07:29:32;6.75;;;5.40;;
27265;SDS011;14766;51.380;13.762;2023-05-07T07:31:59;7.57;;;6.05;;
27265;SDS011;14766;51.380;13.762;2023-05-07T07:34:26;6.38;;;5.25;;
27265;SDS011;14766;51.380;13.762;2023-05-07T07:36:54;5.30;;;4.60;;
27265;SDS011;14766;51.380;13.762;2023-05-07T07:39:22;6.00;;;5.10;;
27265;SDS011;14766;51.380;13.762;2023-05-07T07:41:52;6.32;;;4.70;;
27265;SDS011;14766;51.380;13.762;2023-05-07T07:44:20;7.60;;;5.60;;
27265;SDS011;14766;51.380;13.762;2023-05-07T07:46:55;9.88;;;7.15;;
27265;SDS011;14766;51.380;13.762;2023-05-07T07:49:24;9.73;;;6.68;;
27265;SDS011;14766;51.380;13.762;2023-05-07T07:51:51;9.65;;;6.13;;
27265;SDS011;14766;51.380;13.762;2023-05-07T07:54:19;16.20;;;9.80;;
27265;SDS011;14766;51.380;13.762;2023-05-07T07:56:48;13.50;;;8.07;;
27265;SDS011;14766;51.380;13.762;2023-05-07T07:59:15;11.07;;;6.85;;
27265;SDS011;14766;51.380;13.762;2023-05-07T08:01:46;8.57;;;5.88;;
27265;SDS011;14766;51.380;13.762;2023-05-07T08:04:14;9.52;;;6.65;;
27265;SDS011;14766;51.380;13.762;2023-05-07T08:06:43;13.10;;;8.32;;
27265;SDS011;14766;51.380;13.762;2023-05-07T08:09:10;14.48;;;8.45;;
27265;SDS011;14766;51.380;13.762;2023-05-07T08:11:39;11.85;;;7.65;;
27265;SDS011;14766;51.380;13.762;2023-05-07T08:14:06;8.75;;;6.03;;
27265;SDS011;14766;51.380;13.762;2023-05-07T08:16:34;7.47;;;5.50;;
27265;SDS011;14766;51.380;13.762;2023-05-07T08:19:01;10.43;;;6.03;;
27265;SDS011;14766;51.380;13.762;2023-05-07T08:21:28;5.10;;;4.43;;
27265;SDS011;14766;51.380;13.762;2023-05-07T08:24:00;5.65;;;4.60;;
27265;SDS011;14766;51.380;13.762;2023-05-07T08:26:27;6.13;;;4.38;;
27265;SDS011;14766;51.380;13.762;2023-05-07T08:28:54;6.10;;;5.10;;
27265;SDS011;14766;51.380;13.762;2023-05-07T08:31:23;6.40;;;5.28;;
27265;SDS011;14766;51.380;13.762;2023-05-07T08:33:50;7.05;;;5.93;;
27265;SDS011;14766;51.380;13.762;2023-05-07T08:36:17;9.73;;;7.30;;
27265;SDS011;14766;51.380;13.762;2023-05-07T08:38:45;8.30;;;7.28;;
27265;SDS011;14766;51.380;13.762;2023-05-07T08:41:13;9.68;;;7.32;;
27265;SDS011;14766;51.380;13.762;2023-05-07T08:43:48;7.72;;;6.93;;
27265;SDS011;14766;51.380;13.762;2023-05-07T08:46:20;8.30;;;6.78;;
27265;SDS011;14766;51.380;13.762;2023-05-07T08:48:49;7.13;;;6.13;;
27265;SDS011;14766;51.380;13.762;2023-05-07T08:51:19;9.20;;;6.03;;
27265;SDS011;14766;51.380;13.762;2023-05-07T08:53:48;10.70;;;7.68;;
27265;SDS011;14766;51.380;13.762;2023-05-07T08:56:22;11.90;;;7.88;;
27265;SDS011;14766;51.380;13.762;2023-05-07T08:58:51;8.98;;;6.70;;
27265;SDS011;14766;51.380;13.762;2023-05-07T09:01:23;6.00;;;5.15;;
27265;SDS011;14766;51.380;13.762;2023-05-07T09:03:53;13.20;;;8.15;;
27265;SDS011;14766;51.380;13.762;2023-05-07T09:06:22;13.75;;;9.57;;
27265;SDS011;14766;51.380;13.762;2023-05-07T09:08:50;11.23;;;8.18;;
27265;SDS011;14766;51.380;13.762;2023-05-07T09:11:22;8.52;;;6.57;;
27265;SDS011;14766;51.380;13.762;2023-05-07T09:13:54;7.43;;;6.07;;
27265;SDS011;14766;51.380;13.762;2023-05-07T09:16:24;7.32;;;5.47;;
27265;SDS011;14766;51.380;13.762;2023-05-07T09:18:53;6.57;;;5.20;;
27265;SDS011;14766;51.380;13.762;2023-05-07T09:21:22;5.00;;;4.13;;
27265;SDS011;14766;51.380;13.762;2023-05-07T09:23:52;4.78;;;4.10;;
27265;SDS011;14766;51.380;13.762;2023-05-07T09:26:24;6.65;;;4.25;;
27265;SDS011;14766;51.380;13.762;2023-05-07T09:28:51;6.03;;;4.63;;
27265;SDS011;14766;51.380;13.762;2023-05-07T09:31:19;5.50;;;4.50;;
27265;SDS011;14766;51.380;13.762;2023-05-07T09:33:48;6.43;;;4.88;;
27265;SDS011;14766;51.380;13.762;2023-05-07T09:36:16;5.50;;;4.38;;
27265;SDS011;14766;51.380;13.762;2023-05-07T09:38:44;6.63;;;4.50;;
27265;SDS011;14766;51.380;13.762;2023-05-07T09:41:12;5.47;;;4.35;;
27265;SDS011;14766;51.380;13.762;2023-05-07T09:43:47;6.88;;;4.18;;
27265;SDS011;14766;51.380;13.762;2023-05-07T09:46:25;5.75;;;4.35;;
27265;SDS011;14766;51.380;13.762;2023-05-07T09:48:57;4.88;;;4.13;;
27265;SDS011;14766;51.380;13.762;2023-05-07T09:51:38;7.03;;;4.50;;
27265;SDS011;14766;51.380;13.762;2023-05-07T09:54:10;6.10;;;4.10;;
27265;SDS011;14766;51.380;13.762;2023-05-07T09:56:45;5.97;;;4.20;;
27265;SDS011;14766;51.380;13.762;2023-05-07T09:59:13;5.47;;;4.38;;
27265;SDS011;14766;51.380;13.762;2023-05-07T10:01:43;4.40;;;3.97;;
27265;SDS011;14766;51.380;13.762;2023-05-07T10:04:13;5.53;;;3.88;;
27265;SDS011;14766;51.380;13.762;2023-05-07T10:06:42;5.03;;;3.95;;
27265;SDS011;14766;51.380;13.762;2023-05-07T10:09:13;4.93;;;4.20;;
27265;SDS011;14766;51.380;13.762;2023-05-07T10:11:42;4.22;;;3.30;;
27265;SDS011;14766;51.380;13.762;2023-05-07T10:14:10;4.18;;;3.20;;
27265;SDS011;14766;51.380;13.762;2023-05-07T10:16:40;5.15;;;3.80;;
27265;SDS011;14766;51.380;13.762;2023-05-07T10:19:12;4.32;;;3.70;;
27265;SDS011;14766;51.380;13.762;2023-05-07T10:21:44;4.45;;;3.67;;
27265;SDS011;14766;51.380;13.762;2023-05-07T10:24:31;3.80;;;3.38;;
27265;SDS011;14766;51.380;13.762;2023-05-07T10:27:04;5.53;;;3.95;;
27265;SDS011;14766;51.380;13.762;2023-05-07T10:34:45;5.35;;;3.92;;
27265;SDS011;14766;51.380;13.762;2023-05-07T10:37:15;4.28;;;3.63;;
27265;SDS011;14766;51.380;13.762;2023-05-07T10:39:44;4.80;;;3.55;;
27265;SDS011;14766;51.380;13.762;2023-05-07T10:42:12;4.53;;;3.45;;
27265;SDS011;14766;51.380;13.762;2023-05-07T10:44:46;4.53;;;3.83;;
27265;SDS011;14766;51.380;13.762;2023-05-07T10:47:21;6.22;;;5.05;;
27265;SDS011;14766;51.380;13.762;2023-05-07T10:52:23;6.28;;;4.80;;
27265;SDS011;14766;51.380;13.762;2023-05-07T10:57:51;5.65;;;3.90;;
27265;SDS011;14766;51.380;13.762;2023-05-07T11:03:08;5.07;;;4.05;;
27265;SDS011;14766;51.380;13.762;2023-05-07T11:05:47;6.38;;;4.88;;
27265;SDS011;14766;51.380;13.762;2023-05-07T11:09:12;4.85;;;3.70;;
27265;SDS011;14766;51.380;13.762;2023-05-07T11:11:44;5.70;;;3.92;;
27265;SDS011;14766;51.380;13.762;2023-05-07T11:17:10;5.38;;;4.00;;
27265;SDS011;14766;51.380;13.762;2023-05-07T11:19:52;4.63;;;3.15;;
27265;SDS011;14766;51.380;13.762;2023-05-07T11:22:52;2.97;;;2.22;;
27265;SDS011;14766;51.380;13.762;2023-05-07T11:25:32;2.67;;;2.40;;
27265;SDS011;14766;51.380;13.762;2023-05-07T11:28:12;2.95;;;2.65;;
27265;SDS011;14766;51.380;13.762;2023-05-07T11:30:45;3.88;;;2.60;;
27265;SDS011;14766;51.380;13.762;2023-05-07T11:33:19;5.68;;;4.00;;
27265;SDS011;14766;51.380;13.762;2023-05-07T11:35:49;3.75;;;3.03;;
27265;SDS011;14766;51.380;13.762;2023-05-07T11:38:19;6.10;;;4.15;;
27265;SDS011;14766;51.380;13.762;2023-05-07T11:40:51;4.68;;;2.42;;
27265;SDS011;14766;51.380;13.762;2023-05-07T11:43:18;2.67;;;2.33;;
27265;SDS011;14766;51.380;13.762;2023-05-07T11:45:46;3.53;;;2.50;;
27265;SDS011;14766;51.380;13.762;2023-05-07T11:48:14;4.15;;;2.28;;
27265;SDS011;14766;51.380;13.762;2023-05-07T11:50:52;2.63;;;2.25;;
27265;SDS011;14766;51.380;13.762;2023-05-07T11:53:26;2.35;;;2.03;;
27265;SDS011;14766;51.380;13.762;2023-05-07T11:56:08;4.57;;;2.53;;
27265;SDS011;14766;51.380;13.762;2023-05-07T11:58:39;2.33;;;1.90;;
27265;SDS011;14766;51.380;13.762;2023-05-07T12:01:07;2.47;;;2.15;;
27265;SDS011;14766;51.380;13.762;2023-05-07T12:03:36;2.88;;;2.00;;
27265;SDS011;14766;51.380;13.762;2023-05-07T12:06:07;2.33;;;1.98;;
27265;SDS011;14766;51.380;13.762;2023-05-07T12:08:38;2.08;;;1.88;;
27265;SDS011;14766;51.380;13.762;2023-05-07T12:11:07;2.03;;;1.83;;
27265;SDS011;14766;51.380;13.762;2023-05-07T12:13:55;2.72;;;2.00;;
27265;SDS011;14766;51.380;13.762;2023-05-07T12:16:25;2.85;;;2.45;;
27265;SDS011;14766;51.380;13.762;2023-05-07T12:18:53;2.22;;;2.00;;
27265;SDS011;14766;51.380;13.762;2023-05-07T12:21:21;1.90;;;1.70;;
27265;SDS011;14766;51.380;13.762;2023-05-07T12:23:50;2.20;;;2.00;;
27265;SDS011;14766;51.380;13.762;2023-05-07T12:26:19;2.45;;;2.10;;
27265;SDS011;14766;51.380;13.762;2023-05-07T12:28:49;2.65;;;2.22;;
27265;SDS011;14766;51.380;13.762;2023-05-07T12:31:17;2.90;;;1.70;;
27265;SDS011;14766;51.380;13.762;2023-05-07T12:33:44;2.78;;;2.50;;
27265;SDS011;14766;51.380;13.762;2023-05-07T12:36:12;1.90;;;1.70;;
27265;SDS011;14766;51.380;13.762;2023-05-07T12:38:39;2.35;;;2.10;;
27265;SDS011;14766;51.380;13.762;2023-05-07T12:41:08;2.42;;;2.22;;
27265;SDS011;14766;51.380;13.762;2023-05-07T12:43:37;3.13;;;2.45;;
27265;SDS011;14766;51.380;13.762;2023-05-07T12:46:05;2.38;;;2.17;;
27265;SDS011;14766;51.380;13.762;2023-05-07T12:48:35;2.65;;;2.45;;
27265;SDS011;14766;51.380;13.762;2023-05-07T12:51:04;3.55;;;2.60;;
27265;SDS011;14766;51.380;13.762;2023-05-07T12:53:32;2.88;;;2.58;;
27265;SDS011;14766;51.380;13.762;2023-05-07T12:55:59;2.42;;;2.10;;
27265;SDS011;14766;51.380;13.762;2023-05-07T12:58:29;2.65;;;2.25;;
27265;SDS011;14766;51.380;13.762;2023-05-07T13:01:00;2.47;;;2.28;;
27265;SDS011;14766;51.380;13.762;2023-05-07T13:03:31;2.63;;;2.17;;
27265;SDS011;14766;51.380;13.762;2023-05-07T13:06:03;2.40;;;1.90;;
27265;SDS011;14766;51.380;13.762;2023-05-07T13:08:33;2.42;;;2.00;;
27265;SDS011;14766;51.380;13.762;2023-05-07T13:11:03;3.28;;;2.95;;
27265;SDS011;14766;51.380;13.762;2023-05-07T13:13:32;3.63;;;3.03;;
27265;SDS011;14766;51.380;13.762;2023-05-07T13:16:01;5.20;;;2.80;;
27265;SDS011;14766;51.380;13.762;2023-05-07T13:18:29;4.82;;;3.60;;
27265;SDS011;14766;51.380;13.762;2023-05-07T13:20:57;4.45;;;3.33;;
27265;SDS011;14766;51.380;13.762;2023-05-07T13:23:25;3.90;;;3.30;;
27265;SDS011;14766;51.380;13.762;2023-05-07T13:25:53;3.67;;;3.03;;
27265;SDS011;14766;51.380;13.762;2023-05-07T13:28:20;4.30;;;3.00;;
27265;SDS011;14766;51.380;13.762;2023-05-07T13:30:48;4.07;;;3.55;;
27265;SDS011;14766;51.380;13.762;2023-05-07T13:33:15;4.15;;;3.58;;
27265;SDS011;14766;51.380;13.762;2023-05-07T13:35:44;4.95;;;4.28;;
27265;SDS011;14766;51.380;13.762;2023-05-07T13:38:11;7.28;;;5.18;;
27265;SDS011;14766;51.380;13.762;2023-05-07T13:40:40;5.50;;;4.47;;
27265;SDS011;14766;51.380;13.762;2023-05-07T13:43:07;5.50;;;4.93;;
27265;SDS011;14766;51.380;13.762;2023-05-07T13:45:34;8.18;;;4.00;;
27265;SDS011;14766;51.380;13.762;2023-05-07T13:48:01;3.90;;;3.50;;
27265;SDS011;14766;51.380;13.762;2023-05-07T13:50:28;4.03;;;3.63;;
27265;SDS011;14766;51.380;13.762;2023-05-07T13:52:56;5.15;;;4.22;;
27265;SDS011;14766;51.380;13.762;2023-05-07T13:55:23;4.07;;;3.70;;
27265;SDS011;14766;51.380;13.762;2023-05-07T13:58:01;4.80;;;4.28;;
27265;SDS011;14766;51.380;13.762;2023-05-07T14:00:32;4.38;;;3.88;;
27265;SDS011;14766;51.380;13.762;2023-05-07T14:02:59;4.47;;;3.88;;
27265;SDS011;14766;51.380;13.762;2023-05-07T14:05:27;4.75;;;4.00;;
27265;SDS011;14766;51.380;13.762;2023-05-07T14:07:54;4.93;;;3.65;;
27265;SDS011;14766;51.380;13.762;2023-05-07T14:10:23;4.75;;;3.92;;
27265;SDS011;14766;51.380;13.762;2023-05-07T14:12:51;5.57;;;4.72;;
27265;SDS011;14766;51.380;13.762;2023-05-07T14:15:19;5.80;;;4.28;;
27265;SDS011;14766;51.380;13.762;2023-05-07T14:17:48;7.13;;;3.83;;
27265;SDS011;14766;51.380;13.762;2023-05-07T14:20:15;6.28;;;3.95;;
27265;SDS011;14766;51.380;13.762;2023-05-07T14:22:42;3.65;;;3.35;;
27265;SDS011;14766;51.380;13.762;2023-05-07T14:25:09;4.25;;;3.85;;
27265;SDS011;14766;51.380;13.762;2023-05-07T14:27:36;4.10;;;3.70;;
27265;SDS011;14766;51.380;13.762;2023-05-07T14:30:04;4.60;;;4.00;;
27265;SDS011;14766;51.380;13.762;2023-05-07T14:32:32;3.92;;;3.60;;
27265;SDS011;14766;51.380;13.762;2023-05-07T14:35:00;5.18;;;4.18;;
27265;SDS011;14766;51.380;13.762;2023-05-07T14:37:27;4.03;;;3.60;;
27265;SDS011;14766;51.380;13.762;2023-05-07T14:39:54;5.00;;;4.00;;
27265;SDS011;14766;51.380;13.762;2023-05-07T14:42:21;5.63;;;3.95;;
27265;SDS011;14766;51.380;13.762;2023-05-07T14:44:48;4.20;;;3.80;;
27265;SDS011;14766;51.380;13.762;2023-05-07T14:47:15;4.10;;;3.70;;
27265;SDS011;14766;51.380;13.762;2023-05-07T14:49:45;4.72;;;3.85;;
27265;SDS011;14766;51.380;13.762;2023-05-07T14:52:12;4.00;;;3.60;;
27265;SDS011;14766;51.380;13.762;2023-05-07T14:54:39;4.13;;;3.55;;
27265;SDS011;14766;51.380;13.762;2023-05-07T14:57:08;3.60;;;3.30;;
27265;SDS011;14766;51.380;13.762;2023-05-07T14:59:37;3.70;;;3.30;;
27265;SDS011;14766;51.380;13.762;2023-05-07T15:02:05;4.30;;;3.90;;
27265;SDS011;14766;51.380;13.762;2023-05-07T15:04:36;4.15;;;3.60;;
27265;SDS011;14766;51.380;13.762;2023-05-07T15:07:04;4.13;;;3.58;;